sensor_id;sensor_type;location;lat;lon;timestamp;pressure;altitude;pressure_sealevel;temperature;humidity
73267;BME280;61495;53.400;7.608;2023-07-29T00:01:32;100635.03;;;18.94;89.23
73267;BME280;61495;53.400;7.608;2023-07-29T00:03:57;100634.19;;;18.94;88.64
73267;BME280;61495;53.400;7.608;2023-07-29T00:06:23;100629.56;;;18.89;89.57
73267;BME280;61495;53.400;7.608;2023-07-29T00:08:49;100625.22;;;18.88;91.05
73267;BME280;61495;53.400;7.608;2023-07-29T00:11:14;100620.31;;;18.85;89.56
73267;BME280;61495;53.400;7.608;2023-07-29T00:13:40;100620.31;;;18.85;89.25
73267;BME280;61495;53.400;7.608;2023-07-29T00:16:05;100625.19;;;18.83;89.62
73267;BME280;61495;53.400;7.608;2023-07-29T00:18:31;100628.19;;;18.81;89.46
73267;BME280;61495;53.400;7.608;2023-07-29T00:20:57;100627.63;;;18.79;89.47
73267;BME280;61495;53.400;7.608;2023-07-29T00:23:22;100630.59;;;18.78;90.39
73267;BME280;61495;53.400;7.608;2023-07-29T00:25:48;100618.09;;;18.77;89.86
73267;BME280;61495;53.400;7.608;2023-07-29T00:28:13;100631.13;;;18.75;90.40
73267;BME280;61495;53.400;7.608;2023-07-29T00:30:39;100621.63;;;18.72;91.12
73267;BME280;61495;53.400;7.608;2023-07-29T00:33:04;100616.44;;;18.71;90.66
73267;BME280;61495;53.400;7.608;2023-07-29T00:35:29;100615.91;;;18.69;91.22
73267;BME280;61495;53.400;7.608;2023-07-29T00:37:55;100623.50;;;18.67;90.41
73267;BME280;61495;53.400;7.608;2023-07-29T00:40:22;100614.78;;;18.65;90.88
73267;BME280;61495;53.400;7.608;2023-07-29T00:42:48;100601.75;;;18.62;91.80
73267;BME280;61495;53.400;7.608;2023-07-29T00:45:14;100600.66;;;18.53;93.46
73267;BME280;61495;53.400;7.608;2023-07-29T00:47:41;100603.63;;;18.51;94.36
73267;BME280;61495;53.400;7.608;2023-07-29T00:50:09;100601.19;;;18.50;94.81
73267;BME280;61495;53.400;7.608;2023-07-29T00:52:36;100593.06;;;18.50;93.15
73267;BME280;61495;53.400;7.608;2023-07-29T00:55:01;100596.84;;;18.49;92.35
73267;BME280;61495;53.400;7.608;2023-07-29T00:57:29;100597.88;;;18.48;92.91
73267;BME280;61495;53.400;7.608;2023-07-29T00:59:56;100590.84;;;18.47;92.31
73267;BME280;61495;53.400;7.608;2023-07-29T01:02:22;100587.56;;;18.45;92.00
73267;BME280;61495;53.400;7.608;2023-07-29T01:04:55;100580.50;;;18.44;93.36
73267;BME280;61495;53.400;7.608;2023-07-29T01:07:34;100578.56;;;18.39;95.92
73267;BME280;61495;53.400;7.608;2023-07-29T01:10:04;100570.44;;;18.34;96.76
73267;BME280;61495;53.400;7.608;2023-07-29T01:12:53;100571.78;;;18.31;96.75
73267;BME280;61495;53.400;7.608;2023-07-29T01:15:26;100568.50;;;18.29;95.86
73267;BME280;61495;53.400;7.608;2023-07-29T01:17:56;100571.19;;;18.29;95.86
73267;BME280;61495;53.400;7.608;2023-07-29T01:20:25;100565.78;;;18.29;95.87
73267;BME280;61495;53.400;7.608;2023-07-29T01:22:51;100563.34;;;18.28;94.74
73267;BME280;61495;53.400;7.608;2023-07-29T01:25:17;100554.38;;;18.27;94.21
73267;BME280;61495;53.400;7.608;2023-07-29T01:27:47;100561.16;;;18.25;93.62
73267;BME280;61495;53.400;7.608;2023-07-29T01:30:12;100555.97;;;18.23;94.28
73267;BME280;61495;53.400;7.608;2023-07-29T01:32:53;100560.03;;;18.21;95.32
73267;BME280;61495;53.400;7.608;2023-07-29T01:35:29;100556.78;;;18.19;95.88
73267;BME280;61495;53.400;7.608;2023-07-29T01:38:14;100558.13;;;18.16;96.16
73267;BME280;61495;53.400;7.608;2023-07-29T01:40:59;100550.53;;;18.13;96.19
73267;BME280;61495;53.400;7.608;2023-07-29T01:43:43;100549.44;;;18.14;96.37
73267;BME280;61495;53.400;7.608;2023-07-29T01:46:28;100549.94;;;18.11;94.31
73267;BME280;61495;53.400;7.608;2023-07-29T01:49:13;100552.94;;;18.10;95.18
73267;BME280;61495;53.400;7.608;2023-07-29T01:51:49;100546.69;;;18.09;95.79
73267;BME280;61495;53.400;7.608;2023-07-29T01:54:32;100548.31;;;18.05;96.26
73267;BME280;61495;53.400;7.608;2023-07-29T01:56:58;100552.66;;;18.06;95.81
73267;BME280;61495;53.400;7.608;2023-07-29T01:59:23;100543.97;;;18.04;95.61
73267;BME280;61495;53.400;7.608;2023-07-29T02:01:49;100553.16;;;18.03;96.76
73267;BME280;61495;53.400;7.608;2023-07-29T02:04:14;100538.25;;;18.01;95.12
73267;BME280;61495;53.400;7.608;2023-07-29T02:06:40;100538.53;;;17.99;98.43
73267;BME280;61495;53.400;7.608;2023-07-29T02:09:05;100537.97;;;17.97;98.36
73267;BME280;61495;53.400;7.608;2023-07-29T02:11:31;100532.53;;;17.97;97.53
73267;BME280;61495;53.400;7.608;2023-07-29T02:13:56;100533.34;;;17.98;96.10
73267;BME280;61495;53.400;7.608;2023-07-29T02:16:22;100537.13;;;17.97;97.12
73267;BME280;61495;53.400;7.608;2023-07-29T02:18:48;100530.91;;;17.96;96.54
73267;BME280;61495;53.400;7.608;2023-07-29T02:21:14;100529.28;;;17.95;97.36
73267;BME280;61495;53.400;7.608;2023-07-29T02:23:40;100535.53;;;17.96;97.84
73267;BME280;61495;53.400;7.608;2023-07-29T02:26:05;100530.09;;;17.96;97.28
73267;BME280;61495;53.400;7.608;2023-07-29T02:28:31;100534.41;;;17.97;96.52
73267;BME280;61495;53.400;7.608;2023-07-29T02:31:17;100532.00;;;17.95;97.83
73267;BME280;61495;53.400;7.608;2023-07-29T02:33:43;100522.22;;;17.94;99.95
73267;BME280;61495;53.400;7.608;2023-07-29T02:36:09;100524.94;;;17.94;96.91
73267;BME280;61495;53.400;7.608;2023-07-29T02:38:34;100527.63;;;17.94;97.93
73267;BME280;61495;53.400;7.608;2023-07-29T02:41:00;100518.97;;;17.92;97.55
73267;BME280;61495;53.400;7.608;2023-07-29T02:43:25;100521.91;;;17.91;98.94
73267;BME280;61495;53.400;7.608;2023-07-29T02:45:51;100530.06;;;17.91;96.53
73267;BME280;61495;53.400;7.608;2023-07-29T02:48:16;100527.63;;;17.89;99.00
73267;BME280;61495;53.400;7.608;2023-07-29T02:50:41;100529.22;;;17.85;98.41
73267;BME280;61495;53.400;7.608;2023-07-29T02:53:07;100530.84;;;17.86;97.29
73267;BME280;61495;53.400;7.608;2023-07-29T02:55:32;100530.03;;;17.86;97.40
73267;BME280;61495;53.400;7.608;2023-07-29T02:57:57;100524.88;;;17.84;98.53
73267;BME280;61495;53.400;7.608;2023-07-29T03:00:23;100523.25;;;17.83;99.53
73267;BME280;61495;53.400;7.608;2023-07-29T03:02:49;100525.94;;;17.83;97.50
73267;BME280;61495;53.400;7.608;2023-07-29T03:05:15;100526.47;;;17.80;99.25
73267;BME280;61495;53.400;7.608;2023-07-29T03:07:40;100528.13;;;17.81;98.39
73267;BME280;61495;53.400;7.608;2023-07-29T03:10:06;100517.81;;;17.78;99.49
73267;BME280;61495;53.400;7.608;2023-07-29T03:12:31;100524.28;;;17.77;98.25
73267;BME280;61495;53.400;7.608;2023-07-29T03:14:57;100533.47;;;17.76;99.27
73267;BME280;61495;53.400;7.608;2023-07-29T03:17:22;100524.56;;;17.75;100.00
73267;BME280;61495;53.400;7.608;2023-07-29T03:19:47;100528.59;;;17.73;100.00
73267;BME280;61495;53.400;7.608;2023-07-29T03:22:13;100532.94;;;17.74;100.00
73267;BME280;61495;53.400;7.608;2023-07-29T03:24:38;100524.78;;;17.69;100.00
73267;BME280;61495;53.400;7.608;2023-07-29T03:27:04;100530.75;;;17.71;99.63
73267;BME280;61495;53.400;7.608;2023-07-29T03:29:30;100531.78;;;17.65;100.00
73267;BME280;61495;53.400;7.608;2023-07-29T03:31:55;100523.16;;;17.68;99.63
73267;BME280;61495;53.400;7.608;2023-07-29T03:34:21;100528.56;;;17.68;100.00
73267;BME280;61495;53.400;7.608;2023-07-29T03:36:46;100525.84;;;17.68;99.12
73267;BME280;61495;53.400;7.608;2023-07-29T03:39:13;100527.50;;;17.69;99.43
73267;BME280;61495;53.400;7.608;2023-07-29T03:41:39;100523.66;;;17.65;100.00
73267;BME280;61495;53.400;7.608;2023-07-29T03:44:04;100524.72;;;17.64;100.00
73267;BME280;61495;53.400;7.608;2023-07-29T03:46:31;100523.41;;;17.66;100.00
73267;BME280;61495;53.400;7.608;2023-07-29T03:48:56;100522.03;;;17.64;100.00
73267;BME280;61495;53.400;7.608;2023-07-29T03:51:22;100525.31;;;17.66;99.96
73267;BME280;61495;53.400;7.608;2023-07-29T03:53:48;100526.66;;;17.63;100.00
73267;BME280;61495;53.400;7.608;2023-07-29T03:56:13;100526.38;;;17.65;98.87
73267;BME280;61495;53.400;7.608;2023-07-29T03:58:38;100520.66;;;17.61;100.00
73267;BME280;61495;53.400;7.608;2023-07-29T04:01:04;100516.59;;;17.64;98.73
73267;BME280;61495;53.400;7.608;2023-07-29T04:03:29;100516.06;;;17.62;100.00
73267;BME280;61495;53.400;7.608;2023-07-29T04:05:55;100510.63;;;17.62;100.00
73267;BME280;61495;53.400;7.608;2023-07-29T04:08:20;100501.69;;;17.61;98.73
73267;BME280;61495;53.400;7.608;2023-07-29T04:10:46;100499.81;;;17.62;100.00
73267;BME280;61495;53.400;7.608;2023-07-29T04:13:11;100499.25;;;17.60;99.02
73267;BME280;61495;53.400;7.608;2023-07-29T04:15:36;100493.84;;;17.60;99.14
73267;BME280;61495;53.400;7.608;2023-07-29T04:18:02;100500.88;;;17.61;98.61
73267;BME280;61495;53.400;7.608;2023-07-29T04:20:29;100499.25;;;17.60;99.21
73267;BME280;61495;53.400;7.608;2023-07-29T04:22:54;100505.75;;;17.59;97.70
73267;BME280;61495;53.400;7.608;2023-07-29T04:25:19;100506.81;;;17.58;99.21
73267;BME280;61495;53.400;7.608;2023-07-29T04:27:45;100503.56;;;17.56;99.13
73267;BME280;61495;53.400;7.608;2023-07-29T04:30:10;100505.19;;;17.57;98.14
73267;BME280;61495;53.400;7.608;2023-07-29T04:32:36;100508.97;;;17.56;99.53
73267;BME280;61495;53.400;7.608;2023-07-29T04:35:01;100503.56;;;17.56;98.59
73267;BME280;61495;53.400;7.608;2023-07-29T04:37:27;100491.09;;;17.55;99.61
73267;BME280;61495;53.400;7.608;2023-07-29T04:39:52;100489.44;;;17.54;99.25
73267;BME280;61495;53.400;7.608;2023-07-29T04:42:17;100487.78;;;17.53;98.66
73267;BME280;61495;53.400;7.608;2023-07-29T04:44:43;100493.22;;;17.53;98.95
73267;BME280;61495;53.400;7.608;2023-07-29T04:47:08;100487.78;;;17.53;100.00
73267;BME280;61495;53.400;7.608;2023-07-29T04:49:34;100498.41;;;17.54;98.75
73267;BME280;61495;53.400;7.608;2023-07-29T04:51:59;100491.09;;;17.55;98.76
73267;BME280;61495;53.400;7.608;2023-07-29T04:54:24;100491.09;;;17.55;100.00
73267;BME280;61495;53.400;7.608;2023-07-29T04:56:50;100484.88;;;17.54;100.00
73267;BME280;61495;53.400;7.608;2023-07-29T04:59:15;100479.16;;;17.56;100.00
73267;BME280;61495;53.400;7.608;2023-07-29T05:01:41;100476.47;;;17.56;100.00
73267;BME280;61495;53.400;7.608;2023-07-29T05:04:08;100479.72;;;17.58;98.66
73267;BME280;61495;53.400;7.608;2023-07-29T05:06:33;100482.19;;;17.59;98.91
73267;BME280;61495;53.400;7.608;2023-07-29T05:08:59;100480.84;;;17.62;100.00
73267;BME280;61495;53.400;7.608;2023-07-29T05:11:37;100480.84;;;17.62;99.29
73267;BME280;61495;53.400;7.608;2023-07-29T05:14:02;100477.06;;;17.63;98.96
73267;BME280;61495;53.400;7.608;2023-07-29T05:16:29;100477.06;;;17.63;99.81
73267;BME280;61495;53.400;7.608;2023-07-29T05:18:55;100481.94;;;17.66;98.79
73267;BME280;61495;53.400;7.608;2023-07-29T05:21:20;100480.84;;;17.67;98.69
73267;BME280;61495;53.400;7.608;2023-07-29T05:23:46;100482.50;;;17.68;100.00
73267;BME280;61495;53.400;7.608;2023-07-29T05:26:11;100484.13;;;17.69;99.74
73267;BME280;61495;53.400;7.608;2023-07-29T05:28:37;100486.84;;;17.69;100.00
73267;BME280;61495;53.400;7.608;2023-07-29T05:31:02;100497.69;;;17.69;100.00
73267;BME280;61495;53.400;7.608;2023-07-29T05:33:27;100494.97;;;17.69;100.00
73267;BME280;61495;53.400;7.608;2023-07-29T05:35:53;100503.94;;;17.69;100.00
73267;BME280;61495;53.400;7.608;2023-07-29T05:38:18;100492.03;;;17.75;100.00
73267;BME280;61495;53.400;7.608;2023-07-29T05:40:44;100497.47;;;17.75;100.00
73267;BME280;61495;53.400;7.608;2023-07-29T05:43:09;100499.38;;;17.80;100.00
73267;BME280;61495;53.400;7.608;2023-07-29T05:45:34;100501.00;;;17.81;100.00
73267;BME280;61495;53.400;7.608;2023-07-29T05:48:00;100507.53;;;17.85;100.00
73267;BME280;61495;53.400;7.608;2023-07-29T05:50:25;100508.66;;;17.89;100.00
73267;BME280;61495;53.400;7.608;2023-07-29T05:52:50;100505.94;;;17.94;100.00
73267;BME280;61495;53.400;7.608;2023-07-29T05:55:16;100498.38;;;17.96;100.00
73267;BME280;61495;53.400;7.608;2023-07-29T05:57:41;100494.56;;;17.97;100.00
73267;BME280;61495;53.400;7.608;2023-07-29T06:00:08;100496.22;;;17.98;100.00
73267;BME280;61495;53.400;7.608;2023-07-29T06:02:33;100500.56;;;17.99;100.00
73267;BME280;61495;53.400;7.608;2023-07-29T06:04:59;100494.06;;;18.00;100.00
73267;BME280;61495;53.400;7.608;2023-07-29T06:07:25;100493.81;;;18.02;100.00
73267;BME280;61495;53.400;7.608;2023-07-29T06:09:54;100497.06;;;18.04;100.00
73267;BME280;61495;53.400;7.608;2023-07-29T06:12:20;100515.50;;;18.07;100.00
73267;BME280;61495;53.400;7.608;2023-07-29T06:14:45;100503.84;;;18.06;100.00
73267;BME280;61495;53.400;7.608;2023-07-29T06:17:11;100497.88;;;18.09;100.00
73267;BME280;61495;53.400;7.608;2023-07-29T06:19:37;100491.41;;;18.10;100.00
73267;BME280;61495;53.400;7.608;2023-07-29T06:22:03;100487.63;;;18.16;100.00
73267;BME280;61495;53.400;7.608;2023-07-29T06:24:29;100502.00;;;18.17;100.00
73267;BME280;61495;53.400;7.608;2023-07-29T06:26:54;100487.09;;;18.19;100.00
73267;BME280;61495;53.400;7.608;2023-07-29T06:29:20;100496.59;;;18.22;100.00
73267;BME280;61495;53.400;7.608;2023-07-29T06:31:45;100496.06;;;18.25;100.00
73267;BME280;61495;53.400;7.608;2023-07-29T06:34:11;100499.59;;;18.30;100.00
73267;BME280;61495;53.400;7.608;2023-07-29T06:36:36;100503.44;;;18.35;100.00
73267;BME280;61495;53.400;7.608;2023-07-29T06:39:01;100505.34;;;18.44;100.00
73267;BME280;61495;53.400;7.608;2023-07-29T06:41:27;100504.53;;;18.44;100.00
73267;BME280;61495;53.400;7.608;2023-07-29T06:43:52;100507.81;;;18.46;100.00
73267;BME280;61495;53.400;7.608;2023-07-29T06:46:17;100515.16;;;18.50;100.00
73267;BME280;61495;53.400;7.608;2023-07-29T06:48:43;100510.84;;;18.54;100.00
73267;BME280;61495;53.400;7.608;2023-07-29T06:51:08;100520.34;;;18.57;100.00
73267;BME280;61495;53.400;7.608;2023-07-29T06:53:34;100514.91;;;18.62;100.00
73267;BME280;61495;53.400;7.608;2023-07-29T06:55:59;100510.59;;;18.61;100.00
73267;BME280;61495;53.400;7.608;2023-07-29T06:58:25;100511.66;;;18.65;100.00
73267;BME280;61495;53.400;7.608;2023-07-29T07:00:50;100519.03;;;18.69;99.68
73267;BME280;61495;53.400;7.608;2023-07-29T07:03:15;100513.59;;;18.64;99.71
73267;BME280;61495;53.400;7.608;2023-07-29T07:05:41;100516.56;;;18.68;99.42
73267;BME280;61495;53.400;7.608;2023-07-29T07:08:06;100520.13;;;18.73;98.99
73267;BME280;61495;53.400;7.608;2023-07-29T07:10:32;100520.13;;;18.83;98.58
73267;BME280;61495;53.400;7.608;2023-07-29T07:12:59;100513.38;;;19.06;100.00
73267;BME280;61495;53.400;7.608;2023-07-29T07:15:25;100517.72;;;19.27;99.33
73267;BME280;61495;53.400;7.608;2023-07-29T07:17:51;100518.84;;;19.57;98.16
73267;BME280;61495;53.400;7.608;2023-07-29T07:20:17;100512.25;;;19.83;97.67
73267;BME280;61495;53.400;7.608;2023-07-29T07:22:42;100518.75;;;19.97;94.30
73267;BME280;61495;53.400;7.608;2023-07-29T07:25:08;100526.00;;;20.22;94.12
73267;BME280;61495;53.400;7.608;2023-07-29T07:27:33;100524.59;;;20.34;93.28
73267;BME280;61495;53.400;7.608;2023-07-29T07:29:59;100517.63;;;20.13;89.46
73267;BME280;61495;53.400;7.608;2023-07-29T07:32:25;100512.94;;;20.29;92.19
73267;BME280;61495;53.400;7.608;2023-07-29T07:34:51;100524.28;;;20.46;90.97
73267;BME280;61495;53.400;7.608;2023-07-29T07:37:16;100505.41;;;20.65;90.00
73267;BME280;61495;53.400;7.608;2023-07-29T07:39:41;100519.97;;;20.89;91.68
73267;BME280;61495;53.400;7.608;2023-07-29T07:42:07;100519.44;;;20.82;89.84
73267;BME280;61495;53.400;7.608;2023-07-29T07:44:32;100525.13;;;20.90;88.17
73267;BME280;61495;53.400;7.608;2023-07-29T07:46:58;100513.44;;;20.85;86.27
73267;BME280;61495;53.400;7.608;2023-07-29T07:49:23;100509.03;;;20.94;86.79
73267;BME280;61495;53.400;7.608;2023-07-29T07:51:49;100510.59;;;21.00;87.09
73267;BME280;61495;53.400;7.608;2023-07-29T07:54:14;100517.56;;;21.21;86.94
73267;BME280;61495;53.400;7.608;2023-07-29T07:56:39;100509.75;;;21.43;88.08
73267;BME280;61495;53.400;7.608;2023-07-29T07:59:05;100508.97;;;21.67;85.71
73267;BME280;61495;53.400;7.608;2023-07-29T08:01:35;100505.56;;;21.80;85.66
73267;BME280;61495;53.400;7.608;2023-07-29T08:04:01;100502.06;;;22.03;85.65
73267;BME280;61495;53.400;7.608;2023-07-29T08:06:26;100508.09;;;22.24;85.73
73267;BME280;61495;53.400;7.608;2023-07-29T08:08:52;100506.56;;;22.36;84.30
73267;BME280;61495;53.400;7.608;2023-07-29T08:11:17;100494.47;;;22.42;83.41
73267;BME280;61495;53.400;7.608;2023-07-29T08:13:43;100502.25;;;22.30;81.72
73267;BME280;61495;53.400;7.608;2023-07-29T08:16:08;100498.19;;;22.28;80.09
73267;BME280;61495;53.400;7.608;2023-07-29T08:18:33;100504.13;;;22.35;82.18
73267;BME280;61495;53.400;7.608;2023-07-29T08:21:00;100493.50;;;22.52;82.26
73267;BME280;61495;53.400;7.608;2023-07-29T08:23:32;100496.78;;;22.73;81.61
73267;BME280;61495;53.400;7.608;2023-07-29T08:26:00;100500.56;;;22.77;81.43
73267;BME280;61495;53.400;7.608;2023-07-29T08:28:35;100510.47;;;22.73;79.05
73267;BME280;61495;53.400;7.608;2023-07-29T08:31:01;100525.25;;;22.72;79.34
73267;BME280;61495;53.400;7.608;2023-07-29T08:33:26;100517.22;;;22.56;77.83
73267;BME280;61495;53.400;7.608;2023-07-29T08:35:52;100533.63;;;22.56;78.58
73267;BME280;61495;53.400;7.608;2023-07-29T08:38:18;100536.97;;;22.48;78.18
73267;BME280;61495;53.400;7.608;2023-07-29T08:43:38;100523.06;;;23.06;79.72
73267;BME280;61495;53.400;7.608;2023-07-29T08:46:06;100515.03;;;23.28;79.83
73267;BME280;61495;53.400;7.608;2023-07-29T08:48:42;100523.38;;;23.55;80.56
73267;BME280;61495;53.400;7.608;2023-07-29T08:51:09;100519.97;;;23.63;76.47
73267;BME280;61495;53.400;7.608;2023-07-29T08:53:36;100533.50;;;23.55;75.14
73267;BME280;61495;53.400;7.608;2023-07-29T08:56:01;100534.38;;;23.18;74.90
73267;BME280;61495;53.400;7.608;2023-07-29T08:58:27;100524.16;;;23.42;75.54
73267;BME280;61495;53.400;7.608;2023-07-29T09:00:52;100525.91;;;23.33;74.82
73267;BME280;61495;53.400;7.608;2023-07-29T09:03:18;100524.88;;;23.48;75.84
73267;BME280;61495;53.400;7.608;2023-07-29T09:05:45;100523.94;;;23.20;74.42
73267;BME280;61495;53.400;7.608;2023-07-29T09:08:11;100526.25;;;23.13;74.20
73267;BME280;61495;53.400;7.608;2023-07-29T09:10:37;100528.31;;;23.40;74.98
73267;BME280;61495;53.400;7.608;2023-07-29T09:13:04;100529.06;;;23.59;74.83
73267;BME280;61495;53.400;7.608;2023-07-29T09:15:32;100527.78;;;23.84;75.21
73267;BME280;61495;53.400;7.608;2023-07-29T09:17:58;100525.44;;;23.91;74.45
73267;BME280;61495;53.400;7.608;2023-07-29T09:20:25;100522.72;;;23.91;72.77
73267;BME280;61495;53.400;7.608;2023-07-29T09:22:54;100530.81;;;23.68;72.36
73267;BME280;61495;53.400;7.608;2023-07-29T09:25:27;100522.25;;;23.56;70.86
73267;BME280;61495;53.400;7.608;2023-07-29T09:27:58;100537.56;;;23.57;72.03
73267;BME280;61495;53.400;7.608;2023-07-29T09:30:24;100529.16;;;23.35;70.50
73267;BME280;61495;53.400;7.608;2023-07-29T09:32:59;100530.56;;;23.51;72.87
73267;BME280;61495;53.400;7.608;2023-07-29T09:35:32;100530.69;;;23.60;72.78
73267;BME280;61495;53.400;7.608;2023-07-29T09:37:58;100524.97;;;23.43;72.82
73267;BME280;61495;53.400;7.608;2023-07-29T09:40:24;100525.59;;;23.53;73.58
73267;BME280;61495;53.400;7.608;2023-07-29T09:42:51;100524.41;;;23.59;73.75
73267;BME280;61495;53.400;7.608;2023-07-29T09:45:24;100528.44;;;23.48;73.73
73267;BME280;61495;53.400;7.608;2023-07-29T09:47:51;100523.69;;;23.35;71.65
73267;BME280;61495;53.400;7.608;2023-07-29T09:50:17;100519.03;;;23.36;72.63
73267;BME280;61495;53.400;7.608;2023-07-29T09:52:43;100521.84;;;23.49;73.72
73267;BME280;61495;53.400;7.608;2023-07-29T09:55:18;100517.63;;;23.38;71.60
73267;BME280;61495;53.400;7.608;2023-07-29T09:57:44;100517.38;;;23.21;71.79
73267;BME280;61495;53.400;7.608;2023-07-29T10:00:13;100517.97;;;23.18;72.09
73267;BME280;61495;53.400;7.608;2023-07-29T10:02:40;100510.28;;;23.20;74.39
73267;BME280;61495;53.400;7.608;2023-07-29T10:05:07;100518.69;;;23.42;74.67
73267;BME280;61495;53.400;7.608;2023-07-29T10:07:35;100516.28;;;23.54;73.95
73267;BME280;61495;53.400;7.608;2023-07-29T10:10:02;100511.22;;;23.61;73.35
73267;BME280;61495;53.400;7.608;2023-07-29T10:12:30;100511.66;;;23.68;73.46
73267;BME280;61495;53.400;7.608;2023-07-29T10:14:59;100503.97;;;23.98;73.16
73267;BME280;61495;53.400;7.608;2023-07-29T10:17:26;100505.06;;;23.97;73.92
73267;BME280;61495;53.400;7.608;2023-07-29T10:19:52;100505.38;;;24.09;73.30
73267;BME280;61495;53.400;7.608;2023-07-29T10:22:20;100507.25;;;24.13;72.24
73267;BME280;61495;53.400;7.608;2023-07-29T10:24:48;100505.72;;;24.21;72.85
73267;BME280;61495;53.400;7.608;2023-07-29T10:27:18;100512.50;;;24.10;71.45
73267;BME280;61495;53.400;7.608;2023-07-29T10:29:45;100523.88;;;24.17;70.76
73267;BME280;61495;53.400;7.608;2023-07-29T10:32:11;100511.91;;;24.13;70.05
73267;BME280;61495;53.400;7.608;2023-07-29T10:34:37;100511.91;;;24.13;70.56
73267;BME280;61495;53.400;7.608;2023-07-29T10:37:04;100511.88;;;23.86;70.44
73267;BME280;61495;53.400;7.608;2023-07-29T10:39:38;100513.28;;;23.97;71.50
73267;BME280;61495;53.400;7.608;2023-07-29T10:42:06;100513.50;;;24.00;71.38
73267;BME280;61495;53.400;7.608;2023-07-29T10:47:27;100513.50;;;23.87;69.94
73267;BME280;61495;53.400;7.608;2023-07-29T10:49:56;100510.16;;;24.03;72.29
73267;BME280;61495;53.400;7.608;2023-07-29T10:55:00;100510.69;;;24.19;71.44
73267;BME280;61495;53.400;7.608;2023-07-29T10:57:33;100504.91;;;23.93;69.28
73267;BME280;61495;53.400;7.608;2023-07-29T11:00:00;100505.41;;;23.95;71.43
73267;BME280;61495;53.400;7.608;2023-07-29T11:02:34;100504.56;;;24.08;71.35
73267;BME280;61495;53.400;7.608;2023-07-29T11:05:05;100494.56;;;24.17;72.13
73267;BME280;61495;53.400;7.608;2023-07-29T11:07:43;100506.00;;;24.06;71.09
73267;BME280;61495;53.400;7.608;2023-07-29T11:10:08;100511.47;;;24.06;72.29
73267;BME280;61495;53.400;7.608;2023-07-29T11:17:37;100501.13;;;24.44;70.85
73267;BME280;61495;53.400;7.608;2023-07-29T11:20:04;100498.59;;;24.33;69.71
73267;BME280;61495;53.400;7.608;2023-07-29T11:22:30;100493.16;;;24.20;70.71
73267;BME280;61495;53.400;7.608;2023-07-29T11:24:55;100500.72;;;24.09;70.86
73267;BME280;61495;53.400;7.608;2023-07-29T11:27:21;100499.72;;;24.46;72.12
73267;BME280;61495;53.400;7.608;2023-07-29T11:29:47;100495.69;;;24.66;72.67
73267;BME280;61495;53.400;7.608;2023-07-29T11:32:12;100486.84;;;24.82;71.76
73267;BME280;61495;53.400;7.608;2023-07-29T11:34:38;100490.22;;;25.02;71.92
73267;BME280;61495;53.400;7.608;2023-07-29T11:37:05;100491.22;;;25.06;70.49
73267;BME280;61495;53.400;7.608;2023-07-29T11:39:32;100488.66;;;25.31;71.10
73267;BME280;61495;53.400;7.608;2023-07-29T11:41:58;100491.41;;;25.54;70.44
73267;BME280;61495;53.400;7.608;2023-07-29T11:44:24;100485.13;;;25.53;67.78
73267;BME280;61495;53.400;7.608;2023-07-29T11:46:50;100488.78;;;25.49;67.42
73267;BME280;61495;53.400;7.608;2023-07-29T11:49:16;100497.69;;;25.54;65.43
73267;BME280;61495;53.400;7.608;2023-07-29T11:51:41;100497.69;;;25.54;66.60
73267;BME280;61495;53.400;7.608;2023-07-29T11:54:08;100491.31;;;25.67;65.13
73267;BME280;61495;53.400;7.608;2023-07-29T11:56:34;100500.75;;;25.83;65.73
73267;BME280;61495;53.400;7.608;2023-07-29T11:59:01;100492.72;;;25.95;65.22
73267;BME280;61495;53.400;7.608;2023-07-29T12:01:28;100504.06;;;26.03;66.46
73267;BME280;61495;53.400;7.608;2023-07-29T12:03:55;100505.03;;;26.07;67.06
73267;BME280;61495;53.400;7.608;2023-07-29T12:06:22;100495.28;;;26.31;64.66
73267;BME280;61495;53.400;7.608;2023-07-29T12:08:48;100494.97;;;26.33;64.00
73267;BME280;61495;53.400;7.608;2023-07-29T12:11:14;100495.59;;;26.21;63.13
73267;BME280;61495;53.400;7.608;2023-07-29T12:13:41;100501.13;;;26.38;63.01
73267;BME280;61495;53.400;7.608;2023-07-29T12:16:07;100498.22;;;26.43;63.85
73267;BME280;61495;53.400;7.608;2023-07-29T12:18:33;100502.56;;;26.36;60.84
73267;BME280;61495;53.400;7.608;2023-07-29T12:20:59;100503.66;;;26.18;62.58
73267;BME280;61495;53.400;7.608;2023-07-29T12:23:25;100487.81;;;26.23;62.83
73267;BME280;61495;53.400;7.608;2023-07-29T12:25:57;100491.44;;;26.49;63.69
73267;BME280;61495;53.400;7.608;2023-07-29T12:28:23;100484.91;;;26.28;61.50
73267;BME280;61495;53.400;7.608;2023-07-29T12:30:53;100486.94;;;26.06;61.60
73267;BME280;61495;53.400;7.608;2023-07-29T12:33:31;100505.38;;;26.14;64.46
73267;BME280;61495;53.400;7.608;2023-07-29T12:35:57;100515.00;;;25.63;62.78
73267;BME280;61495;53.400;7.608;2023-07-29T12:38:22;100536.72;;;25.73;62.07
73267;BME280;61495;53.400;7.608;2023-07-29T12:40:48;100530.34;;;25.42;62.04
73267;BME280;61495;53.400;7.608;2023-07-29T12:43:13;100541.47;;;25.15;64.29
73267;BME280;61495;53.400;7.608;2023-07-29T12:45:38;100543.91;;;24.53;67.38
73267;BME280;61495;53.400;7.608;2023-07-29T12:48:10;100545.59;;;24.41;66.86
73267;BME280;61495;53.400;7.608;2023-07-29T12:50:37;100534.00;;;24.30;68.97
73267;BME280;61495;53.400;7.608;2023-07-29T12:53:04;100534.81;;;24.30;70.91
73267;BME280;61495;53.400;7.608;2023-07-29T12:55:30;100526.81;;;24.34;73.22
73267;BME280;61495;53.400;7.608;2023-07-29T12:57:56;100529.13;;;24.27;76.98
73267;BME280;61495;53.400;7.608;2023-07-29T13:00:23;100532.00;;;24.22;76.51